createdAt,value
2023-03-01T00:00:04.282Z,8.15
2023-03-01T00:02:38.429Z,6.57
2023-03-01T00:05:05.859Z,9.13
2023-03-01T00:07:32.597Z,7.05
2023-03-01T00:09:59.229Z,5.97
2023-03-01T00:12:25.890Z,7.10
2023-03-01T00:14:52.582Z,7.05
2023-03-01T00:17:19.302Z,5.88
2023-03-01T00:19:46.011Z,5.90
2023-03-01T00:22:12.645Z,6.28
2023-03-01T00:24:39.331Z,6.30
2023-03-01T00:27:06.015Z,6.00
2023-03-01T00:29:32.702Z,6.38
2023-03-01T00:32:00.192Z,6.75
2023-03-01T00:34:26.944Z,6.47
2023-03-01T00:36:55.406Z,7.00
2023-03-01T00:39:22.038Z,6.57
2023-03-01T00:41:48.705Z,7.22
2023-03-01T00:44:15.562Z,6.65
2023-03-01T00:46:42.364Z,7.15
2023-03-01T00:49:09.330Z,6.10
2023-03-01T00:51:36.033Z,6.55
2023-03-01T00:54:03.846Z,6.75
2023-03-01T00:56:32.217Z,6.03
2023-03-01T00:58:59.133Z,6.05
2023-03-01T01:01:31.854Z,6.38
2023-03-01T01:04:00.111Z,6.10
2023-03-01T01:06:30.684Z,6.75
2023-03-01T01:08:58.660Z,6.20
2023-03-01T01:11:26.907Z,6.82
2023-03-01T01:13:54.102Z,7.07
2023-03-01T01:16:22.737Z,6.68
2023-03-01T01:18:49.551Z,8.20
2023-03-01T01:21:19.379Z,8.15
2023-03-01T01:23:47.144Z,6.30
2023-03-01T01:26:20.537Z,6.32
2023-03-01T01:28:47.695Z,6.68
2023-03-01T01:31:15.034Z,6.05
2023-03-01T01:33:41.856Z,6.00
2023-03-01T01:36:09.280Z,6.70
2023-03-01T01:38:38.336Z,5.90
2023-03-01T01:41:05.936Z,5.60
2023-03-01T01:43:37.295Z,7.25
2023-03-01T01:46:07.354Z,6.38
2023-03-01T01:48:44.289Z,6.93
2023-03-01T01:51:19.093Z,7.50
2023-03-01T01:53:49.587Z,5.90
2023-03-01T01:56:18.354Z,6.65
2023-03-01T01:58:46.449Z,6.35
2023-03-01T02:01:13.331Z,6.43
2023-03-01T02:03:43.592Z,5.25
2023-03-01T02:06:18.414Z,6.47
2023-03-01T02:08:46.686Z,6.65
2023-03-01T02:11:15.451Z,6.18
2023-03-01T02:13:42.708Z,6.30
2023-03-01T02:16:11.898Z,6.50
2023-03-01T02:18:40.601Z,6.70
2023-03-01T02:21:16.107Z,6.60
2023-03-01T02:23:43.310Z,7.18
2023-03-01T02:26:28.764Z,7.07
2023-03-01T02:28:55.984Z,6.93
2023-03-01T02:31:41.564Z,8.27
2023-03-01T02:34:14.413Z,7.20
2023-03-01T02:36:48.644Z,6.05
2023-03-01T02:39:26.300Z,5.90
2023-03-01T02:41:55.062Z,6.78
2023-03-01T02:44:22.726Z,6.28
2023-03-01T02:46:53.919Z,6.57
2023-03-01T02:49:23.682Z,6.60
2023-03-01T02:52:05.313Z,6.82
2023-03-01T02:54:40.730Z,7.03
2023-03-01T02:57:08.396Z,7.03
2023-03-01T02:59:40.284Z,7.05
2023-03-01T03:02:21.534Z,7.35
2023-03-01T03:04:48.350Z,6.40
2023-03-01T03:07:15.613Z,6.10
2023-03-01T03:09:43.622Z,6.63
2023-03-01T03:12:10.951Z,6.15
2023-03-01T03:14:37.950Z,5.85
2023-03-01T03:17:07.545Z,18.92
2023-03-01T03:19:34.254Z,7.15
2023-03-01T03:22:00.908Z,7.43
2023-03-01T03:24:29.622Z,6.55
2023-03-01T03:26:56.288Z,8.68
2023-03-01T03:29:22.943Z,6.63
2023-03-01T03:31:49.673Z,6.18
2023-03-01T03:34:19.117Z,7.28
2023-03-01T03:36:45.893Z,7.43
2023-03-01T03:39:12.573Z,6.13
2023-03-01T03:41:39.294Z,6.03
2023-03-01T03:44:05.950Z,6.20
2023-03-01T03:46:32.911Z,7.18
2023-03-01T03:48:59.770Z,6.78
2023-03-01T03:51:26.417Z,5.65
2023-03-01T03:53:53.152Z,7.60
2023-03-01T03:56:19.885Z,6.60
2023-03-01T03:58:46.565Z,7.18
2023-03-01T04:01:13.198Z,6.95
2023-03-01T04:03:39.850Z,7.20
2023-03-01T04:06:07.008Z,6.85
2023-03-01T04:08:33.767Z,6.43
2023-03-01T04:11:21.686Z,7.35
2023-03-01T04:13:48.888Z,6.03
2023-03-01T04:16:15.549Z,8.82
2023-03-01T04:18:42.212Z,6.80
2023-03-01T04:21:08.897Z,6.57
2023-03-01T04:23:36.100Z,6.32
2023-03-01T04:26:02.910Z,6.85
2023-03-01T04:28:41.368Z,6.82
2023-03-01T04:31:14.665Z,7.70
2023-03-01T04:33:53.052Z,6.55
2023-03-01T04:36:22.798Z,6.63
2023-03-01T04:38:49.853Z,7.90
2023-03-01T04:41:19.754Z,6.18
2023-03-01T04:43:46.562Z,6.13
2023-03-01T04:46:17.190Z,6.57
2023-03-01T04:48:45.299Z,6.22
2023-03-01T04:51:14.301Z,7.13
2023-03-01T04:53:42.385Z,6.80
2023-03-01T04:56:09.121Z,6.75
2023-03-01T04:58:35.835Z,6.28
2023-03-01T05:01:02.557Z,6.72
2023-03-01T05:03:29.645Z,6.63
2023-03-01T05:06:00.597Z,6.38
2023-03-01T05:08:27.841Z,7.55
2023-03-01T05:10:55.385Z,6.18
2023-03-01T05:13:22.409Z,6.47
2023-03-01T05:15:56.347Z,6.65
2023-03-01T05:18:26.884Z,6.13
2023-03-01T05:20:57.128Z,6.85
2023-03-01T05:23:24.832Z,7.32
2023-03-01T05:25:53.172Z,7.20
2023-03-01T05:28:20.941Z,5.82
2023-03-01T05:30:48.137Z,6.47
2023-03-01T05:33:14.913Z,6.70
2023-03-01T05:35:45.881Z,7.60
2023-03-01T05:38:16.570Z,7.03
2023-03-01T05:40:45.340Z,6.93
2023-03-01T05:43:13.143Z,6.63
2023-03-01T05:45:40.515Z,6.53
2023-03-01T05:48:08.226Z,6.18
2023-03-01T05:50:37.960Z,7.05
2023-03-01T05:53:10.749Z,6.97
2023-03-01T05:55:38.544Z,8.23
2023-03-01T05:58:08.031Z,6.28
2023-03-01T06:00:34.948Z,6.40
2023-03-01T06:03:02.163Z,6.38
2023-03-01T06:05:29.621Z,7.13
2023-03-01T06:07:59.081Z,6.00
2023-03-01T06:10:25.736Z,6.20
2023-03-01T06:12:52.605Z,9.13
2023-03-01T06:15:19.342Z,7.80
2023-03-01T06:17:47.136Z,9.73
2023-03-01T06:20:22.849Z,8.13
2023-03-01T06:22:50.216Z,8.13
2023-03-01T06:25:20.378Z,8.20
2023-03-01T06:27:47.829Z,7.38
2023-03-01T06:30:16.996Z,7.40
2023-03-01T06:32:43.996Z,6.65
2023-03-01T06:35:12.898Z,6.95
2023-03-01T06:37:41.731Z,6.93
2023-03-01T06:40:09.837Z,7.90
2023-03-01T06:42:37.050Z,6.82
2023-03-01T06:45:05.171Z,8.48
2023-03-01T06:47:32.341Z,6.68
2023-03-01T06:49:59.006Z,8.07
2023-03-01T06:52:25.771Z,7.38
2023-03-01T06:54:52.461Z,9.23
2023-03-01T06:57:19.360Z,9.15
2023-03-01T06:59:47.151Z,6.72
2023-03-01T07:02:15.983Z,8.98
2023-03-01T07:04:43.508Z,8.80
2023-03-01T07:07:10.563Z,7.47
2023-03-01T07:09:37.326Z,8.52
2023-03-01T07:12:04.240Z,8.48
2023-03-01T07:14:31.077Z,7.70
2023-03-01T07:16:57.766Z,9.32
2023-03-01T07:19:24.909Z,7.32
2023-03-01T07:21:51.626Z,7.35
2023-03-01T07:24:18.273Z,7.90
2023-03-01T07:26:44.923Z,11.25
2023-03-01T07:29:11.928Z,8.43
2023-03-01T07:31:38.646Z,10.38
2023-03-01T07:34:05.385Z,7.88
2023-03-01T07:36:32.519Z,8.73
2023-03-01T07:38:59.460Z,8.50
2023-03-01T07:41:26.162Z,11.68
2023-03-01T07:43:52.866Z,8.00
2023-03-01T07:46:20.356Z,10.02
2023-03-01T07:48:47.649Z,9.27
2023-03-01T07:51:14.834Z,8.43
2023-03-01T07:53:41.515Z,8.43
2023-03-01T07:56:11.832Z,10.07
2023-03-01T07:58:40.652Z,8.90
2023-03-01T08:01:09.594Z,8.13
2023-03-01T08:03:37.571Z,8.38
2023-03-01T08:06:06.140Z,9.27
2023-03-01T08:08:34.178Z,9.15
2023-03-01T08:11:02.705Z,7.60
2023-03-01T08:13:30.052Z,8.30
2023-03-01T08:16:05.605Z,9.32
2023-03-01T08:18:32.868Z,7.95
2023-03-01T08:21:08.085Z,28.35
2023-03-01T08:23:35.685Z,8.70
2023-03-01T08:26:08.086Z,8.63
2023-03-01T08:28:35.324Z,7.63
2023-03-01T08:31:02.240Z,8.77
2023-03-01T08:33:29.494Z,7.70
2023-03-01T08:36:07.713Z,8.45
2023-03-01T08:38:36.247Z,7.88
2023-03-01T08:41:04.354Z,10.90
2023-03-01T08:43:31.533Z,9.00
2023-03-01T08:45:58.291Z,9.93
2023-03-01T08:48:25.621Z,10.75
2023-03-01T08:50:52.372Z,10.52
2023-03-01T08:53:19.126Z,8.57
2023-03-01T08:55:46.159Z,8.93
2023-03-01T08:58:13.067Z,7.63
2023-03-01T09:00:41.038Z,7.75
2023-03-01T09:03:07.721Z,8.93
2023-03-01T09:05:35.115Z,11.43
2023-03-01T09:08:01.873Z,27.48
2023-03-01T09:10:28.605Z,22.42
2023-03-01T09:12:55.271Z,13.63
2023-03-01T09:15:21.991Z,16.88
2023-03-01T09:17:48.644Z,12.25
2023-03-01T09:20:15.338Z,10.98
2023-03-01T09:22:42.017Z,9.13
2023-03-01T09:25:08.919Z,8.30
2023-03-01T09:27:35.556Z,8.68
2023-03-01T09:30:02.732Z,12.10
2023-03-01T09:32:32.288Z,13.15
2023-03-01T09:35:04.441Z,9.95
2023-03-01T09:37:33.156Z,10.52
2023-03-01T09:40:00.298Z,11.70
2023-03-01T09:42:32.036Z,8.13
2023-03-01T09:45:06.483Z,11.07
2023-03-01T09:47:36.002Z,12.15
2023-03-01T09:50:17.776Z,7.88
2023-03-01T09:52:49.757Z,8.57
2023-03-01T09:55:26.211Z,8.10
2023-03-01T09:58:21.040Z,9.25
2023-03-01T10:00:50.793Z,8.00
2023-03-01T10:03:46.367Z,8.02
2023-03-01T10:06:34.091Z,8.20
2023-03-01T10:09:17.468Z,7.90
2023-03-01T10:11:49.336Z,7.82
2023-03-01T10:14:36.499Z,8.63
2023-03-01T10:17:09.579Z,8.77
2023-03-01T10:19:47.993Z,11.45
2023-03-01T10:22:16.540Z,9.32
2023-03-01T10:24:43.694Z,11.55
2023-03-01T10:27:19.902Z,11.18
2023-03-01T10:32:25.169Z,9.80
2023-03-01T10:34:52.039Z,8.05
2023-03-01T10:37:22.481Z,8.15
2023-03-01T10:40:10.101Z,7.90
2023-03-01T10:42:40.268Z,8.85
2023-03-01T10:45:32.100Z,10.93
2023-03-01T10:48:16.919Z,9.50
2023-03-01T10:50:50.116Z,10.73
2023-03-01T10:53:33.387Z,8.57
2023-03-01T10:56:09.322Z,22.40
2023-03-01T10:58:38.540Z,28.45
2023-03-01T11:01:07.114Z,26.17
2023-03-01T11:03:37.677Z,64.20
2023-03-01T11:06:12.006Z,84.82
2023-03-01T11:08:47.088Z,55.30
2023-03-01T11:11:24.664Z,38.45
2023-03-01T11:14:16.120Z,34.38
2023-03-01T11:17:13.272Z,31.90
2023-03-01T11:19:39.979Z,29.00
2023-03-01T11:22:22.124Z,28.70
2023-03-01T11:25:03.544Z,26.98
2023-03-01T11:27:41.115Z,24.40
2023-03-01T11:30:21.529Z,24.08
2023-03-01T11:33:25.725Z,20.70
2023-03-01T11:36:21.773Z,19.80
2023-03-01T11:38:49.252Z,21.02
2023-03-01T11:41:22.786Z,20.13
2023-03-01T11:43:55.148Z,20.98
2023-03-01T11:46:37.056Z,17.30
2023-03-01T11:49:46.547Z,16.17
2023-03-01T11:52:25.018Z,17.75
2023-03-01T11:55:24.504Z,20.25
2023-03-01T11:58:19.928Z,15.85
2023-03-01T12:01:11.684Z,15.90
2023-03-01T12:04:07.717Z,15.48
2023-03-01T12:06:45.469Z,12.90
2023-03-01T12:09:53.920Z,13.68
2023-03-01T12:12:41.885Z,11.68
2023-03-01T12:15:40.127Z,11.98
2023-03-01T12:18:18.730Z,10.18
2023-03-01T12:21:15.078Z,10.27
2023-03-01T12:23:41.757Z,11.50
2023-03-01T12:26:31.420Z,11.70
2023-03-01T12:29:24.709Z,9.98
2023-03-01T12:32:15.759Z,9.02
2023-03-01T12:35:14.449Z,9.77
2023-03-01T12:38:15.142Z,9.90
2023-03-01T12:40:58.472Z,7.80
2023-03-01T12:43:52.435Z,11.55
2023-03-01T12:46:48.483Z,8.50
2023-03-01T12:49:31.166Z,9.25
2023-03-01T12:52:13.108Z,8.82
2023-03-01T12:54:39.818Z,8.85
2023-03-01T12:57:11.943Z,9.10
2023-03-01T12:59:42.077Z,8.75
2023-03-01T13:02:14.677Z,8.35
2023-03-01T13:04:49.982Z,7.70
2023-03-01T13:07:31.579Z,8.85
2023-03-01T13:10:26.790Z,8.82
2023-03-01T13:13:04.060Z,7.75
2023-03-01T13:15:33.283Z,7.38
2023-03-01T13:18:28.374Z,7.95
2023-03-01T13:20:59.432Z,8.85
2023-03-01T13:23:35.616Z,8.25
2023-03-01T13:26:17.848Z,8.13
2023-03-01T13:28:57.696Z,8.75
2023-03-01T13:31:27.182Z,8.35
2023-03-01T13:34:01.731Z,8.95
2023-03-01T13:36:28.621Z,8.18
2023-03-01T13:38:56.143Z,9.18
2023-03-01T13:41:44.727Z,8.13
2023-03-01T13:44:27.898Z,8.20
2023-03-01T13:46:59.328Z,7.80
2023-03-01T13:49:45.224Z,9.45
2023-03-01T13:52:37.523Z,7.80
2023-03-01T13:55:08.042Z,9.35
2023-03-01T13:57:37.437Z,9.93
2023-03-01T14:00:05.676Z,9.05
2023-03-01T14:02:35.209Z,8.52
2023-03-01T14:05:02.344Z,8.43
2023-03-01T14:07:32.406Z,9.05
2023-03-01T14:10:07.104Z,9.10
2023-03-01T14:12:51.697Z,9.13
2023-03-01T14:15:30.813Z,8.48
2023-03-01T14:18:09.370Z,8.32
2023-03-01T14:20:43.058Z,8.20
2023-03-01T14:23:18.249Z,11.05
2023-03-01T14:26:03.229Z,8.88
2023-03-01T14:28:34.276Z,8.95
2023-03-01T14:31:02.198Z,9.20
2023-03-01T14:33:34.604Z,10.35
2023-03-01T14:36:07.594Z,7.75
2023-03-01T14:38:37.033Z,7.95
2023-03-01T14:41:11.401Z,8.70
2023-03-01T14:43:44.545Z,7.55
2023-03-01T14:46:47.698Z,7.68
2023-03-01T14:49:20.110Z,8.13
2023-03-01T14:51:57.794Z,9.85
2023-03-01T14:54:49.282Z,7.88
2023-03-01T14:57:25.156Z,8.07
2023-03-01T14:59:58.170Z,8.27
2023-03-01T15:02:27.351Z,9.43
2023-03-01T15:05:01.747Z,8.52
2023-03-01T15:07:40.802Z,7.50
2023-03-01T15:10:16.626Z,8.70
2023-03-01T15:12:43.428Z,8.77
2023-03-01T15:15:22.322Z,9.13
2023-03-01T15:17:58.225Z,6.88
2023-03-01T15:20:28.410Z,7.68
2023-03-01T15:22:56.575Z,7.95
2023-03-01T15:25:26.908Z,8.23
2023-03-01T15:27:56.088Z,9.32
2023-03-01T15:30:40.816Z,10.43
2023-03-01T15:33:27.757Z,9.30
2023-03-01T15:35:55.997Z,8.45
2023-03-01T15:38:35.036Z,7.18
2023-03-01T15:41:22.635Z,9.57
2023-03-01T15:43:50.619Z,6.95
2023-03-01T15:46:21.003Z,9.20
2023-03-01T15:48:50.421Z,8.63
2023-03-01T15:51:17.584Z,7.10
2023-03-01T15:53:54.716Z,8.10
2023-03-01T15:56:21.677Z,7.93
2023-03-01T15:58:48.617Z,7.55
2023-03-01T16:01:17.715Z,7.45
2023-03-01T16:03:45.279Z,8.07
2023-03-01T16:06:12.471Z,8.68
2023-03-01T16:08:39.707Z,7.35
2023-03-01T16:11:11.532Z,7.75
2023-03-01T16:13:38.193Z,7.47
2023-03-01T16:16:05.228Z,7.20
2023-03-01T16:18:31.977Z,8.40
2023-03-01T16:20:58.633Z,7.05
2023-03-01T16:23:25.908Z,7.97
2023-03-01T16:25:52.671Z,7.80
2023-03-01T16:28:19.322Z,7.50
2023-03-01T16:30:51.809Z,7.97
2023-03-01T16:33:30.562Z,7.20
2023-03-01T16:36:01.082Z,7.40
2023-03-01T16:38:27.975Z,7.05
2023-03-01T16:40:54.697Z,7.18
2023-03-01T16:43:21.450Z,7.28
2023-03-01T16:45:48.378Z,7.80
2023-03-01T16:48:15.132Z,7.30
2023-03-01T16:50:41.854Z,6.65
2023-03-01T16:53:08.549Z,7.90
2023-03-01T16:55:35.368Z,7.38
2023-03-01T16:58:02.547Z,6.80
2023-03-01T17:00:29.557Z,7.07
2023-03-01T17:02:56.543Z,7.53
2023-03-01T17:05:24.899Z,6.25
2023-03-01T17:07:52.031Z,6.97
2023-03-01T17:10:18.822Z,8.45
2023-03-01T17:12:48.423Z,7.25
2023-03-01T17:15:15.314Z,6.88
2023-03-01T17:17:42.037Z,6.85
2023-03-01T17:20:09.430Z,6.55
2023-03-01T17:22:36.133Z,8.30
2023-03-01T17:25:03.255Z,6.63
2023-03-01T17:27:30.000Z,7.28
2023-03-01T17:29:56.816Z,6.93
2023-03-01T17:32:23.807Z,7.10
2023-03-01T17:34:50.528Z,6.47
2023-03-01T17:37:17.246Z,8.18
2023-03-01T17:39:43.948Z,7.53
2023-03-01T17:42:10.600Z,7.53
2023-03-01T17:44:37.376Z,7.07
2023-03-01T17:47:05.740Z,7.45
2023-03-01T17:49:33.164Z,7.93
2023-03-01T17:52:00.547Z,7.05
2023-03-01T17:54:27.438Z,6.63
2023-03-01T17:56:56.020Z,7.53
2023-03-01T17:59:22.733Z,7.90
2023-03-01T18:01:49.472Z,7.50
2023-03-01T18:04:18.372Z,6.75
2023-03-01T18:06:45.136Z,7.22
2023-03-01T18:09:12.017Z,7.45
2023-03-01T18:11:39.504Z,7.80
2023-03-01T18:14:06.299Z,8.02
2023-03-01T18:16:34.208Z,8.20
2023-03-01T18:19:01.823Z,7.07
2023-03-01T18:21:30.046Z,8.77
2023-03-01T18:23:59.405Z,14.82
2023-03-01T18:26:27.594Z,25.40
2023-03-01T18:28:54.970Z,33.20
2023-03-01T18:31:22.727Z,49.47
2023-03-01T18:33:52.058Z,52.35
2023-03-01T18:36:24.027Z,52.17
2023-03-01T18:38:52.936Z,37.13
2023-03-01T18:41:20.255Z,36.67
2023-03-01T18:43:47.073Z,32.28
2023-03-01T18:46:14.034Z,27.58
2023-03-01T18:48:40.970Z,25.17
2023-03-01T18:51:16.380Z,28.52
2023-03-01T18:53:43.411Z,23.63
2023-03-01T18:56:10.814Z,21.35
2023-03-01T18:58:38.391Z,18.85
2023-03-01T19:01:08.194Z,19.67
2023-03-01T19:03:35.769Z,17.67
2023-03-01T19:06:02.584Z,18.52
2023-03-01T19:08:30.438Z,16.13
2023-03-01T19:10:59.107Z,14.43
2023-03-01T19:13:26.276Z,15.52
2023-03-01T19:15:53.457Z,15.07
2023-03-01T19:18:20.316Z,15.18
2023-03-01T19:20:50.617Z,13.50
2023-03-01T19:23:17.486Z,13.43
2023-03-01T19:25:44.137Z,12.25
2023-03-01T19:28:10.822Z,14.05
2023-03-01T19:30:38.110Z,12.82
2023-03-01T19:33:04.960Z,12.48
2023-03-01T19:35:34.474Z,13.13
2023-03-01T19:38:01.168Z,11.85
2023-03-01T19:40:27.813Z,11.95
2023-03-01T19:42:54.511Z,12.85
2023-03-01T19:45:31.812Z,11.30
2023-03-01T19:47:59.945Z,11.52
2023-03-01T19:50:26.827Z,11.13
2023-03-01T19:52:53.549Z,10.10
2023-03-01T19:55:20.227Z,11.70
2023-03-01T19:57:46.906Z,10.18
2023-03-01T20:00:14.162Z,10.75
2023-03-01T20:02:41.424Z,10.00
2023-03-01T20:05:08.497Z,10.27
2023-03-01T20:07:35.373Z,10.75
2023-03-01T20:10:02.298Z,10.63
2023-03-01T20:12:29.066Z,10.88
2023-03-01T20:14:56.928Z,11.13
2023-03-01T20:17:23.661Z,10.60
2023-03-01T20:19:50.345Z,9.98
2023-03-01T20:22:17.948Z,10.55
2023-03-01T20:24:45.061Z,11.82
2023-03-01T20:27:12.128Z,11.52
2023-03-01T20:29:39.128Z,10.32
2023-03-01T20:32:05.978Z,11.23
2023-03-01T20:34:32.726Z,9.90
2023-03-01T20:36:59.479Z,10.40
2023-03-01T20:39:26.277Z,10.45
2023-03-01T20:41:52.964Z,11.55
2023-03-01T20:44:19.655Z,10.65
2023-03-01T20:46:46.348Z,11.00
2023-03-01T20:49:13.060Z,10.57
2023-03-01T20:51:39.792Z,10.77
2023-03-01T20:54:06.533Z,11.10
2023-03-01T20:56:33.735Z,10.88
2023-03-01T20:59:05.712Z,11.57
2023-03-01T21:01:32.812Z,11.25
2023-03-01T21:03:59.531Z,10.57
2023-03-01T21:06:26.295Z,19.08
2023-03-01T21:08:54.757Z,43.08
2023-03-01T21:11:25.154Z,13.57
2023-03-01T21:13:53.001Z,10.48
2023-03-01T21:16:20.828Z,12.68
2023-03-01T21:18:47.853Z,11.02
2023-03-01T21:21:22.440Z,11.80
2023-03-01T21:23:49.330Z,11.40
2023-03-01T21:26:22.227Z,11.00
2023-03-01T21:28:50.854Z,13.63
2023-03-01T21:31:23.071Z,12.90
2023-03-01T21:33:54.525Z,9.45
2023-03-01T21:36:22.538Z,10.25
2023-03-01T21:38:50.914Z,11.45
2023-03-01T21:41:20.380Z,10.57
2023-03-01T21:43:49.366Z,11.98
2023-03-01T21:46:21.409Z,10.32
2023-03-01T21:48:50.397Z,9.75
2023-03-01T21:51:18.640Z,9.68
2023-03-01T21:53:46.924Z,12.38
2023-03-01T21:56:19.263Z,10.38
2023-03-01T21:58:45.927Z,9.85
2023-03-01T22:01:15.876Z,9.07
2023-03-01T22:03:46.143Z,9.77
2023-03-01T22:06:19.130Z,9.18
2023-03-01T22:08:51.991Z,9.52
2023-03-01T22:11:20.195Z,9.55
2023-03-01T22:13:49.526Z,8.68
2023-03-01T22:16:17.541Z,9.48
2023-03-01T22:18:44.348Z,9.18
2023-03-01T22:21:11.613Z,10.05
2023-03-01T22:23:40.234Z,11.00
2023-03-01T22:26:08.230Z,8.77
2023-03-01T22:28:36.008Z,8.18
2023-03-01T22:31:04.813Z,9.88
2023-03-01T22:33:31.881Z,9.27
2023-03-01T22:35:58.763Z,7.35
2023-03-01T22:38:25.621Z,8.52
2023-03-01T22:40:57.103Z,8.50
2023-03-01T22:43:23.781Z,9.57
2023-03-01T22:45:50.514Z,8.15
2023-03-01T22:48:17.402Z,8.32
2023-03-01T22:50:46.000Z,8.02
2023-03-01T22:53:12.835Z,8.18
2023-03-01T22:55:40.174Z,7.85
2023-03-01T22:58:07.011Z,8.75
2023-03-01T23:00:34.473Z,8.25
2023-03-01T23:03:01.695Z,8.40
2023-03-01T23:05:28.505Z,8.60
2023-03-01T23:07:55.170Z,7.68
2023-03-01T23:10:21.853Z,8.40
2023-03-01T23:12:48.537Z,9.70
2023-03-01T23:15:15.208Z,8.23
2023-03-01T23:17:42.058Z,9.18
2023-03-01T23:20:10.337Z,7.95
2023-03-01T23:22:38.182Z,8.35
2023-03-01T23:25:07.326Z,8.35
2023-03-01T23:27:37.114Z,8.13
2023-03-01T23:30:05.570Z,8.88
2023-03-01T23:32:32.461Z,7.93
2023-03-01T23:34:59.210Z,7.88
2023-03-01T23:37:30.516Z,7.28
2023-03-01T23:39:57.671Z,8.45
2023-03-01T23:42:24.359Z,7.38
2023-03-01T23:44:51.058Z,8.07
2023-03-01T23:47:17.738Z,7.57
2023-03-01T23:49:44.410Z,8.38
2023-03-01T23:52:15.160Z,8.20
2023-03-01T23:54:41.823Z,7.00
2023-03-01T23:57:08.489Z,9.15
2023-03-01T23:59:35.165Z,7.15
